sensor_id;sensor_type;location;lat;lon;timestamp;temperature;humidity
14705;DHT22;7442;50.840;3.396;2024-02-21T00:01:46;21.30;57.20
14705;DHT22;7442;50.840;3.396;2024-02-21T00:04:17;21.30;57.20
14705;DHT22;7442;50.840;3.396;2024-02-21T00:06:47;21.30;57.10
14705;DHT22;7442;50.840;3.396;2024-02-21T00:09:17;21.30;57.20
14705;DHT22;7442;50.840;3.396;2024-02-21T00:11:48;21.30;57.20
14705;DHT22;7442;50.840;3.396;2024-02-21T00:14:18;21.20;57.20
14705;DHT22;7442;50.840;3.396;2024-02-21T00:16:48;21.20;57.20
14705;DHT22;7442;50.840;3.396;2024-02-21T00:19:18;21.10;57.20
14705;DHT22;7442;50.840;3.396;2024-02-21T00:21:48;21.10;57.30
14705;DHT22;7442;50.840;3.396;2024-02-21T00:24:18;21.10;57.20
14705;DHT22;7442;50.840;3.396;2024-02-21T00:26:48;21.10;57.20
14705;DHT22;7442;50.840;3.396;2024-02-21T00:29:18;21.10;57.30
14705;DHT22;7442;50.840;3.396;2024-02-21T00:31:49;21.10;57.30
14705;DHT22;7442;50.840;3.396;2024-02-21T00:34:19;21.10;57.30
14705;DHT22;7442;50.840;3.396;2024-02-21T00:36:49;21.10;57.30
14705;DHT22;7442;50.840;3.396;2024-02-21T00:39:20;21.10;57.40
14705;DHT22;7442;50.840;3.396;2024-02-21T00:41:50;21.10;57.30
14705;DHT22;7442;50.840;3.396;2024-02-21T00:44:20;21.10;57.20
14705;DHT22;7442;50.840;3.396;2024-02-21T00:46:50;21.00;57.80
14705;DHT22;7442;50.840;3.396;2024-02-21T00:49:22;21.00;57.20
14705;DHT22;7442;50.840;3.396;2024-02-21T00:51:52;21.00;57.10
14705;DHT22;7442;50.840;3.396;2024-02-21T00:54:22;21.00;57.10
14705;DHT22;7442;50.840;3.396;2024-02-21T00:56:52;21.00;57.70
14705;DHT22;7442;50.840;3.396;2024-02-21T00:59:22;21.00;57.10
14705;DHT22;7442;50.840;3.396;2024-02-21T01:01:52;21.10;57.20
14705;DHT22;7442;50.840;3.396;2024-02-21T01:04:22;21.00;57.10
14705;DHT22;7442;50.840;3.396;2024-02-21T01:06:53;21.00;57.00
14705;DHT22;7442;50.840;3.396;2024-02-21T01:09:23;21.00;57.00
14705;DHT22;7442;50.840;3.396;2024-02-21T01:11:53;21.00;56.90
14705;DHT22;7442;50.840;3.396;2024-02-21T01:14:23;21.00;57.00
14705;DHT22;7442;50.840;3.396;2024-02-21T01:16:53;21.00;56.90
14705;DHT22;7442;50.840;3.396;2024-02-21T01:19:23;21.00;56.90
14705;DHT22;7442;50.840;3.396;2024-02-21T01:21:53;21.00;56.90
14705;DHT22;7442;50.840;3.396;2024-02-21T01:24:23;21.00;57.00
14705;DHT22;7442;50.840;3.396;2024-02-21T01:26:53;20.90;57.00
14705;DHT22;7442;50.840;3.396;2024-02-21T01:29:23;20.90;57.00
14705;DHT22;7442;50.840;3.396;2024-02-21T01:31:53;20.90;57.10
14705;DHT22;7442;50.840;3.396;2024-02-21T01:34:23;20.90;57.10
14705;DHT22;7442;50.840;3.396;2024-02-21T01:36:53;20.90;57.10
14705;DHT22;7442;50.840;3.396;2024-02-21T01:39:23;20.90;57.10
14705;DHT22;7442;50.840;3.396;2024-02-21T01:41:53;20.90;57.10
14705;DHT22;7442;50.840;3.396;2024-02-21T01:44:24;20.90;57.10
14705;DHT22;7442;50.840;3.396;2024-02-21T01:46:54;20.90;57.70
14705;DHT22;7442;50.840;3.396;2024-02-21T01:49:24;20.90;57.20
14705;DHT22;7442;50.840;3.396;2024-02-21T01:51:55;20.90;57.00
14705;DHT22;7442;50.840;3.396;2024-02-21T01:54:25;20.90;57.00
14705;DHT22;7442;50.840;3.396;2024-02-21T01:56:57;20.90;57.00
14705;DHT22;7442;50.840;3.396;2024-02-21T01:59:27;20.90;57.00
14705;DHT22;7442;50.840;3.396;2024-02-21T02:02:00;20.90;57.00
14705;DHT22;7442;50.840;3.396;2024-02-21T02:04:30;20.90;57.00
14705;DHT22;7442;50.840;3.396;2024-02-21T02:07:02;20.90;57.00
14705;DHT22;7442;50.840;3.396;2024-02-21T02:09:35;20.90;57.00
14705;DHT22;7442;50.840;3.396;2024-02-21T02:12:05;20.90;57.00
14705;DHT22;7442;50.840;3.396;2024-02-21T02:14:35;20.90;56.90
14705;DHT22;7442;50.840;3.396;2024-02-21T02:17:05;20.90;56.90
14705;DHT22;7442;50.840;3.396;2024-02-21T02:19:35;20.90;56.90
14705;DHT22;7442;50.840;3.396;2024-02-21T02:22:13;20.90;56.80
14705;DHT22;7442;50.840;3.396;2024-02-21T02:24:38;20.90;56.80
14705;DHT22;7442;50.840;3.396;2024-02-21T02:27:08;20.90;56.80
14705;DHT22;7442;50.840;3.396;2024-02-21T02:29:40;20.90;56.80
14705;DHT22;7442;50.840;3.396;2024-02-21T02:32:10;20.90;56.80
14705;DHT22;7442;50.840;3.396;2024-02-21T02:34:40;20.90;56.70
14705;DHT22;7442;50.840;3.396;2024-02-21T02:37:10;20.90;56.70
14705;DHT22;7442;50.840;3.396;2024-02-21T02:39:40;20.90;56.80
14705;DHT22;7442;50.840;3.396;2024-02-21T02:42:11;20.80;56.80
14705;DHT22;7442;50.840;3.396;2024-02-21T02:44:41;20.80;56.80
14705;DHT22;7442;50.840;3.396;2024-02-21T02:47:11;20.80;56.90
14705;DHT22;7442;50.840;3.396;2024-02-21T02:49:41;20.80;56.90
14705;DHT22;7442;50.840;3.396;2024-02-21T02:52:11;20.80;56.90
14705;DHT22;7442;50.840;3.396;2024-02-21T02:54:41;20.80;56.90
14705;DHT22;7442;50.840;3.396;2024-02-21T02:57:11;20.80;56.90
14705;DHT22;7442;50.840;3.396;2024-02-21T02:59:42;20.80;56.90
14705;DHT22;7442;50.840;3.396;2024-02-21T03:02:12;20.80;56.90
14705;DHT22;7442;50.840;3.396;2024-02-21T03:04:42;20.80;56.90
14705;DHT22;7442;50.840;3.396;2024-02-21T03:07:13;20.80;56.90
14705;DHT22;7442;50.840;3.396;2024-02-21T03:09:43;20.80;56.90
14705;DHT22;7442;50.840;3.396;2024-02-21T03:12:13;20.80;57.40
14705;DHT22;7442;50.840;3.396;2024-02-21T03:14:45;20.80;56.80
14705;DHT22;7442;50.840;3.396;2024-02-21T03:17:15;20.80;56.80
14705;DHT22;7442;50.840;3.396;2024-02-21T03:19:45;20.80;56.80
14705;DHT22;7442;50.840;3.396;2024-02-21T03:22:15;20.80;56.80
14705;DHT22;7442;50.840;3.396;2024-02-21T03:24:45;20.80;56.80
14705;DHT22;7442;50.840;3.396;2024-02-21T03:27:15;20.80;56.80
14705;DHT22;7442;50.840;3.396;2024-02-21T03:29:46;20.80;56.70
14705;DHT22;7442;50.840;3.396;2024-02-21T03:32:16;20.80;56.70
14705;DHT22;7442;50.840;3.396;2024-02-21T03:34:46;20.80;56.70
14705;DHT22;7442;50.840;3.396;2024-02-21T03:37:16;20.80;56.70
14705;DHT22;7442;50.840;3.396;2024-02-21T03:39:46;20.80;56.70
14705;DHT22;7442;50.840;3.396;2024-02-21T03:42:16;20.80;56.70
14705;DHT22;7442;50.840;3.396;2024-02-21T03:44:46;20.80;56.60
14705;DHT22;7442;50.840;3.396;2024-02-21T03:47:16;20.80;56.60
14705;DHT22;7442;50.840;3.396;2024-02-21T03:49:46;20.80;56.50
14705;DHT22;7442;50.840;3.396;2024-02-21T03:52:16;20.80;56.40
14705;DHT22;7442;50.840;3.396;2024-02-21T03:54:46;20.80;56.50
14705;DHT22;7442;50.840;3.396;2024-02-21T03:57:16;20.80;56.40
14705;DHT22;7442;50.840;3.396;2024-02-21T03:59:46;20.80;56.40
14705;DHT22;7442;50.840;3.396;2024-02-21T04:02:17;20.80;57.00
14705;DHT22;7442;50.840;3.396;2024-02-21T04:04:47;20.80;56.30
14705;DHT22;7442;50.840;3.396;2024-02-21T04:07:17;20.80;56.30
14705;DHT22;7442;50.840;3.396;2024-02-21T04:09:47;20.80;56.30
14705;DHT22;7442;50.840;3.396;2024-02-21T04:12:17;20.80;56.30
14705;DHT22;7442;50.840;3.396;2024-02-21T04:14:48;20.80;56.30
14705;DHT22;7442;50.840;3.396;2024-02-21T04:17:18;20.80;56.20
14705;DHT22;7442;50.840;3.396;2024-02-21T04:19:48;20.90;56.30
14705;DHT22;7442;50.840;3.396;2024-02-21T04:22:18;20.90;56.30
14705;DHT22;7442;50.840;3.396;2024-02-21T04:24:48;20.90;56.20
14705;DHT22;7442;50.840;3.396;2024-02-21T04:27:19;20.90;56.20
14705;DHT22;7442;50.840;3.396;2024-02-21T04:29:49;20.90;56.30
14705;DHT22;7442;50.840;3.396;2024-02-21T04:32:19;20.90;56.10
14705;DHT22;7442;50.840;3.396;2024-02-21T04:34:49;20.90;56.20
14705;DHT22;7442;50.840;3.396;2024-02-21T04:37:19;20.90;56.10
14705;DHT22;7442;50.840;3.396;2024-02-21T04:39:50;20.80;56.10
14705;DHT22;7442;50.840;3.396;2024-02-21T04:42:20;20.80;56.20
14705;DHT22;7442;50.840;3.396;2024-02-21T04:44:50;20.80;56.30
14705;DHT22;7442;50.840;3.396;2024-02-21T04:47:20;20.80;56.30
14705;DHT22;7442;50.840;3.396;2024-02-21T04:49:50;20.80;56.20
14705;DHT22;7442;50.840;3.396;2024-02-21T04:52:20;20.80;56.30
14705;DHT22;7442;50.840;3.396;2024-02-21T04:54:50;20.80;56.30
14705;DHT22;7442;50.840;3.396;2024-02-21T04:57:20;20.70;56.20
14705;DHT22;7442;50.840;3.396;2024-02-21T04:59:51;20.80;56.20
14705;DHT22;7442;50.840;3.396;2024-02-21T05:02:21;20.80;56.20
14705;DHT22;7442;50.840;3.396;2024-02-21T05:04:53;20.80;56.20
14705;DHT22;7442;50.840;3.396;2024-02-21T05:07:23;20.80;56.80
14705;DHT22;7442;50.840;3.396;2024-02-21T05:09:53;20.80;56.20
14705;DHT22;7442;50.840;3.396;2024-02-21T05:12:23;20.80;56.20
14705;DHT22;7442;50.840;3.396;2024-02-21T05:14:53;20.80;56.10
14705;DHT22;7442;50.840;3.396;2024-02-21T05:17:23;20.80;56.10
14705;DHT22;7442;50.840;3.396;2024-02-21T05:19:53;20.80;56.70
14705;DHT22;7442;50.840;3.396;2024-02-21T05:22:23;20.80;56.10
14705;DHT22;7442;50.840;3.396;2024-02-21T05:24:53;20.80;56.10
14705;DHT22;7442;50.840;3.396;2024-02-21T05:27:23;20.80;56.10
14705;DHT22;7442;50.840;3.396;2024-02-21T05:29:54;20.70;56.00
14705;DHT22;7442;50.840;3.396;2024-02-21T05:32:26;20.80;56.10
14705;DHT22;7442;50.840;3.396;2024-02-21T05:34:56;20.70;56.00
14705;DHT22;7442;50.840;3.396;2024-02-21T05:37:27;20.80;56.00
14705;DHT22;7442;50.840;3.396;2024-02-21T05:39:57;20.70;56.00
14705;DHT22;7442;50.840;3.396;2024-02-21T05:42:27;20.80;56.00
14705;DHT22;7442;50.840;3.396;2024-02-21T05:44:57;20.80;56.00
14705;DHT22;7442;50.840;3.396;2024-02-21T05:47:27;20.80;55.90
14705;DHT22;7442;50.840;3.396;2024-02-21T05:49:57;20.80;55.90
14705;DHT22;7442;50.840;3.396;2024-02-21T05:52:28;20.80;55.90
14705;DHT22;7442;50.840;3.396;2024-02-21T05:54:58;20.80;55.80
14705;DHT22;7442;50.840;3.396;2024-02-21T05:57:28;20.80;55.80
14705;DHT22;7442;50.840;3.396;2024-02-21T05:59:58;20.80;55.80
14705;DHT22;7442;50.840;3.396;2024-02-21T06:02:28;20.80;55.80
14705;DHT22;7442;50.840;3.396;2024-02-21T06:04:59;20.80;55.80
14705;DHT22;7442;50.840;3.396;2024-02-21T06:07:29;20.80;56.40
14705;DHT22;7442;50.840;3.396;2024-02-21T06:10:02;20.80;55.80
14705;DHT22;7442;50.840;3.396;2024-02-21T06:12:32;20.80;55.80
14705;DHT22;7442;50.840;3.396;2024-02-21T06:15:02;20.80;55.80
14705;DHT22;7442;50.840;3.396;2024-02-21T06:17:32;20.80;55.80
14705;DHT22;7442;50.840;3.396;2024-02-21T06:20:03;20.80;56.40
14705;DHT22;7442;50.840;3.396;2024-02-21T06:22:33;20.80;56.40
14705;DHT22;7442;50.840;3.396;2024-02-21T06:25:03;20.80;55.60
14705;DHT22;7442;50.840;3.396;2024-02-21T06:27:33;20.80;55.60
14705;DHT22;7442;50.840;3.396;2024-02-21T06:30:04;20.80;55.60
14705;DHT22;7442;50.840;3.396;2024-02-21T06:32:34;20.80;55.80
14705;DHT22;7442;50.840;3.396;2024-02-21T06:35:05;20.80;55.80
14705;DHT22;7442;50.840;3.396;2024-02-21T06:37:35;20.80;55.80
14705;DHT22;7442;50.840;3.396;2024-02-21T06:40:07;20.80;56.00
14705;DHT22;7442;50.840;3.396;2024-02-21T06:42:37;20.80;56.10
14705;DHT22;7442;50.840;3.396;2024-02-21T06:45:07;20.80;56.10
14705;DHT22;7442;50.840;3.396;2024-02-21T06:47:37;20.80;56.50
14705;DHT22;7442;50.840;3.396;2024-02-21T06:50:08;20.90;56.80
14705;DHT22;7442;50.840;3.396;2024-02-21T06:52:38;21.00;56.70
14705;DHT22;7442;50.840;3.396;2024-02-21T06:55:08;21.10;56.50
14705;DHT22;7442;50.840;3.396;2024-02-21T06:57:38;21.20;57.00
14705;DHT22;7442;50.840;3.396;2024-02-21T07:00:11;21.30;56.30
14705;DHT22;7442;50.840;3.396;2024-02-21T07:02:41;21.40;56.10
14705;DHT22;7442;50.840;3.396;2024-02-21T07:05:11;21.40;56.10
14705;DHT22;7442;50.840;3.396;2024-02-21T07:07:41;21.40;56.00
14705;DHT22;7442;50.840;3.396;2024-02-21T07:10:11;21.30;56.00
14705;DHT22;7442;50.840;3.396;2024-02-21T07:12:41;21.20;56.10
14705;DHT22;7442;50.840;3.396;2024-02-21T07:15:20;21.10;56.20
14705;DHT22;7442;50.840;3.396;2024-02-21T07:17:50;21.10;56.30
14705;DHT22;7442;50.840;3.396;2024-02-21T07:20:20;21.10;56.40
14705;DHT22;7442;50.840;3.396;2024-02-21T07:22:51;21.10;56.40
14705;DHT22;7442;50.840;3.396;2024-02-21T07:25:21;21.10;56.40
14705;DHT22;7442;50.840;3.396;2024-02-21T07:27:51;21.00;56.40
14705;DHT22;7442;50.840;3.396;2024-02-21T07:30:21;21.00;56.40
14705;DHT22;7442;50.840;3.396;2024-02-21T07:32:51;21.00;56.40
14705;DHT22;7442;50.840;3.396;2024-02-21T07:35:21;21.00;56.40
14705;DHT22;7442;50.840;3.396;2024-02-21T07:37:51;21.00;56.50
14705;DHT22;7442;50.840;3.396;2024-02-21T07:40:21;21.00;56.40
14705;DHT22;7442;50.840;3.396;2024-02-21T07:42:51;21.00;56.40
14705;DHT22;7442;50.840;3.396;2024-02-21T07:45:21;21.00;56.40
14705;DHT22;7442;50.840;3.396;2024-02-21T07:47:53;21.00;56.40
14705;DHT22;7442;50.840;3.396;2024-02-21T07:50:24;21.00;56.40
14705;DHT22;7442;50.840;3.396;2024-02-21T07:52:54;21.00;56.50
14705;DHT22;7442;50.840;3.396;2024-02-21T07:55:24;21.00;56.50
14705;DHT22;7442;50.840;3.396;2024-02-21T07:57:54;21.00;56.50
14705;DHT22;7442;50.840;3.396;2024-02-21T08:00:24;21.00;56.70
14705;DHT22;7442;50.840;3.396;2024-02-21T08:02:54;21.00;57.10
14705;DHT22;7442;50.840;3.396;2024-02-21T08:05:25;21.10;56.50
14705;DHT22;7442;50.840;3.396;2024-02-21T08:07:55;21.20;56.30
14705;DHT22;7442;50.840;3.396;2024-02-21T08:10:25;21.30;56.80
14705;DHT22;7442;50.840;3.396;2024-02-21T08:12:55;21.40;56.00
14705;DHT22;7442;50.840;3.396;2024-02-21T08:15:25;21.30;55.90
14705;DHT22;7442;50.840;3.396;2024-02-21T08:18:00;21.30;56.00
14705;DHT22;7442;50.840;3.396;2024-02-21T08:20:31;21.40;56.10
14705;DHT22;7442;50.840;3.396;2024-02-21T08:23:01;21.40;56.10
14705;DHT22;7442;50.840;3.396;2024-02-21T08:25:31;21.40;55.80
14705;DHT22;7442;50.840;3.396;2024-02-21T08:28:01;21.40;55.70
14705;DHT22;7442;50.840;3.396;2024-02-21T08:30:31;21.50;55.70
14705;DHT22;7442;50.840;3.396;2024-02-21T08:33:01;21.50;55.60
14705;DHT22;7442;50.840;3.396;2024-02-21T08:35:32;21.50;55.50
14705;DHT22;7442;50.840;3.396;2024-02-21T08:38:03;21.60;55.50
14705;DHT22;7442;50.840;3.396;2024-02-21T08:40:33;21.60;55.50
14705;DHT22;7442;50.840;3.396;2024-02-21T08:43:04;21.50;55.40
14705;DHT22;7442;50.840;3.396;2024-02-21T08:45:34;21.50;55.40
14705;DHT22;7442;50.840;3.396;2024-02-21T08:48:04;21.50;55.50
14705;DHT22;7442;50.840;3.396;2024-02-21T08:50:34;21.50;55.50
14705;DHT22;7442;50.840;3.396;2024-02-21T08:53:05;21.40;55.50
14705;DHT22;7442;50.840;3.396;2024-02-21T08:55:35;21.30;56.30
14705;DHT22;7442;50.840;3.396;2024-02-21T08:58:05;21.20;55.90
14705;DHT22;7442;50.840;3.396;2024-02-21T09:00:35;21.30;56.00
14705;DHT22;7442;50.840;3.396;2024-02-21T09:03:05;21.30;56.00
14705;DHT22;7442;50.840;3.396;2024-02-21T09:05:35;21.30;55.90
14705;DHT22;7442;50.840;3.396;2024-02-21T09:08:07;21.30;55.80
14705;DHT22;7442;50.840;3.396;2024-02-21T09:10:37;21.30;56.00
14705;DHT22;7442;50.840;3.396;2024-02-21T09:13:13;21.40;55.80
14705;DHT22;7442;50.840;3.396;2024-02-21T09:15:43;21.30;56.50
14705;DHT22;7442;50.840;3.396;2024-02-21T09:18:13;21.30;55.70
14705;DHT22;7442;50.840;3.396;2024-02-21T09:20:44;21.30;55.80
14705;DHT22;7442;50.840;3.396;2024-02-21T09:23:14;21.20;55.80
14705;DHT22;7442;50.840;3.396;2024-02-21T09:25:45;21.20;56.00
14705;DHT22;7442;50.840;3.396;2024-02-21T09:28:15;21.20;56.60
14705;DHT22;7442;50.840;3.396;2024-02-21T09:30:45;21.20;56.00
14705;DHT22;7442;50.840;3.396;2024-02-21T09:33:15;21.10;55.90
14705;DHT22;7442;50.840;3.396;2024-02-21T09:35:45;21.10;55.90
14705;DHT22;7442;50.840;3.396;2024-02-21T09:38:16;21.10;56.10
14705;DHT22;7442;50.840;3.396;2024-02-21T09:40:48;21.10;56.10
14705;DHT22;7442;50.840;3.396;2024-02-21T09:43:19;21.10;56.20
14705;DHT22;7442;50.840;3.396;2024-02-21T09:45:50;21.10;56.20
14705;DHT22;7442;50.840;3.396;2024-02-21T09:51:20;21.10;56.20
14705;DHT22;7442;50.840;3.396;2024-02-21T09:53:51;21.10;56.30
14705;DHT22;7442;50.840;3.396;2024-02-21T09:56:22;21.10;56.20
14705;DHT22;7442;50.840;3.396;2024-02-21T09:58:54;21.10;56.40
14705;DHT22;7442;50.840;3.396;2024-02-21T10:01:25;21.10;56.40
14705;DHT22;7442;50.840;3.396;2024-02-21T10:04:01;21.10;56.40
14705;DHT22;7442;50.840;3.396;2024-02-21T10:06:32;21.10;56.30
14705;DHT22;7442;50.840;3.396;2024-02-21T10:09:04;21.10;56.20
14705;DHT22;7442;50.840;3.396;2024-02-21T10:11:35;21.10;56.20
14705;DHT22;7442;50.840;3.396;2024-02-21T10:14:07;21.10;56.10
14705;DHT22;7442;50.840;3.396;2024-02-21T10:16:38;21.10;56.10
14705;DHT22;7442;50.840;3.396;2024-02-21T10:19:18;21.10;56.00
14705;DHT22;7442;50.840;3.396;2024-02-21T10:22:08;21.00;55.90
14705;DHT22;7442;50.840;3.396;2024-02-21T10:24:38;21.00;55.90
14705;DHT22;7442;50.840;3.396;2024-02-21T10:27:14;21.00;55.90
14705;DHT22;7442;50.840;3.396;2024-02-21T10:29:48;21.00;55.90
14705;DHT22;7442;50.840;3.396;2024-02-21T10:32:17;21.00;55.90
14705;DHT22;7442;50.840;3.396;2024-02-21T10:34:47;21.00;55.80
14705;DHT22;7442;50.840;3.396;2024-02-21T10:37:21;21.00;55.80
14705;DHT22;7442;50.840;3.396;2024-02-21T10:39:51;21.00;55.70
14705;DHT22;7442;50.840;3.396;2024-02-21T10:42:23;21.00;55.60
14705;DHT22;7442;50.840;3.396;2024-02-21T10:44:58;21.00;55.60
14705;DHT22;7442;50.840;3.396;2024-02-21T10:47:28;21.00;55.60
14705;DHT22;7442;50.840;3.396;2024-02-21T10:50:08;21.00;55.50
14705;DHT22;7442;50.840;3.396;2024-02-21T10:55:32;20.90;55.40
14705;DHT22;7442;50.840;3.396;2024-02-21T10:57:57;20.90;55.40
14705;DHT22;7442;50.840;3.396;2024-02-21T11:00:30;20.90;55.40
14705;DHT22;7442;50.840;3.396;2024-02-21T11:03:00;20.90;55.40
14705;DHT22;7442;50.840;3.396;2024-02-21T11:05:30;20.90;55.40
14705;DHT22;7442;50.840;3.396;2024-02-21T11:08:00;21.00;55.50
14705;DHT22;7442;50.840;3.396;2024-02-21T11:10:31;20.90;55.60
14705;DHT22;7442;50.840;3.396;2024-02-21T11:13:07;21.00;56.40
14705;DHT22;7442;50.840;3.396;2024-02-21T11:15:37;21.00;55.80
14705;DHT22;7442;50.840;3.396;2024-02-21T11:18:07;21.20;56.00
14705;DHT22;7442;50.840;3.396;2024-02-21T11:20:38;21.30;56.00
14705;DHT22;7442;50.840;3.396;2024-02-21T11:23:08;21.30;55.80
14705;DHT22;7442;50.840;3.396;2024-02-21T11:25:40;21.40;56.10
14705;DHT22;7442;50.840;3.396;2024-02-21T11:28:12;21.40;56.00
14705;DHT22;7442;50.840;3.396;2024-02-21T11:30:41;21.50;56.00
14705;DHT22;7442;50.840;3.396;2024-02-21T11:33:14;21.50;56.00
14705;DHT22;7442;50.840;3.396;2024-02-21T11:35:44;21.40;56.30
14705;DHT22;7442;50.840;3.396;2024-02-21T11:38:16;21.40;56.30
14705;DHT22;7442;50.840;3.396;2024-02-21T11:40:47;21.30;56.40
14705;DHT22;7442;50.840;3.396;2024-02-21T11:43:17;21.30;56.60
14705;DHT22;7442;50.840;3.396;2024-02-21T11:45:47;21.20;56.80
14705;DHT22;7442;50.840;3.396;2024-02-21T11:48:17;21.20;56.90
14705;DHT22;7442;50.840;3.396;2024-02-21T11:50:54;21.20;57.00
14705;DHT22;7442;50.840;3.396;2024-02-21T11:53:24;21.10;57.00
14705;DHT22;7442;50.840;3.396;2024-02-21T11:55:56;21.20;57.00
14705;DHT22;7442;50.840;3.396;2024-02-21T11:58:26;21.30;57.00
14705;DHT22;7442;50.840;3.396;2024-02-21T12:00:56;21.40;56.70
14705;DHT22;7442;50.840;3.396;2024-02-21T12:03:27;21.50;56.50
14705;DHT22;7442;50.840;3.396;2024-02-21T12:05:57;21.60;56.20
14705;DHT22;7442;50.840;3.396;2024-02-21T12:08:40;21.70;55.90
14705;DHT22;7442;50.840;3.396;2024-02-21T12:11:25;21.80;55.50
14705;DHT22;7442;50.840;3.396;2024-02-21T12:14:01;21.90;55.50
14705;DHT22;7442;50.840;3.396;2024-02-21T12:16:33;21.90;55.20
14705;DHT22;7442;50.840;3.396;2024-02-21T12:19:03;22.00;55.30
14705;DHT22;7442;50.840;3.396;2024-02-21T12:21:34;22.00;55.20
14705;DHT22;7442;50.840;3.396;2024-02-21T12:24:24;22.00;55.10
14705;DHT22;7442;50.840;3.396;2024-02-21T12:26:50;22.00;55.00
14705;DHT22;7442;50.840;3.396;2024-02-21T12:29:21;22.00;54.80
14705;DHT22;7442;50.840;3.396;2024-02-21T12:31:52;21.90;55.30
14705;DHT22;7442;50.840;3.396;2024-02-21T12:34:30;21.90;54.60
14705;DHT22;7442;50.840;3.396;2024-02-21T12:37:03;21.90;54.90
14705;DHT22;7442;50.840;3.396;2024-02-21T12:39:33;21.90;54.70
14705;DHT22;7442;50.840;3.396;2024-02-21T12:42:03;21.90;54.60
14705;DHT22;7442;50.840;3.396;2024-02-21T12:44:33;22.00;54.40
14705;DHT22;7442;50.840;3.396;2024-02-21T12:47:05;22.10;54.30
14705;DHT22;7442;50.840;3.396;2024-02-21T12:49:35;22.10;54.30
14705;DHT22;7442;50.840;3.396;2024-02-21T12:52:05;22.10;54.10
14705;DHT22;7442;50.840;3.396;2024-02-21T12:54:35;22.20;54.00
14705;DHT22;7442;50.840;3.396;2024-02-21T12:57:06;22.20;53.90
14705;DHT22;7442;50.840;3.396;2024-02-21T12:59:36;22.20;54.00
14705;DHT22;7442;50.840;3.396;2024-02-21T13:02:06;22.10;54.30
14705;DHT22;7442;50.840;3.396;2024-02-21T13:04:37;22.10;54.10
14705;DHT22;7442;50.840;3.396;2024-02-21T13:07:09;22.20;54.10
14705;DHT22;7442;50.840;3.396;2024-02-21T13:09:39;22.10;54.00
14705;DHT22;7442;50.840;3.396;2024-02-21T13:12:09;22.10;54.10
14705;DHT22;7442;50.840;3.396;2024-02-21T13:14:39;22.10;53.90
14705;DHT22;7442;50.840;3.396;2024-02-21T13:17:11;22.20;53.80
14705;DHT22;7442;50.840;3.396;2024-02-21T13:19:41;22.20;53.90
14705;DHT22;7442;50.840;3.396;2024-02-21T13:22:11;22.10;54.10
14705;DHT22;7442;50.840;3.396;2024-02-21T13:24:41;22.10;54.50
14705;DHT22;7442;50.840;3.396;2024-02-21T13:27:11;22.00;54.60
14705;DHT22;7442;50.840;3.396;2024-02-21T13:29:41;22.00;54.60
14705;DHT22;7442;50.840;3.396;2024-02-21T13:32:12;21.90;54.70
14705;DHT22;7442;50.840;3.396;2024-02-21T13:34:42;21.90;55.00
14705;DHT22;7442;50.840;3.396;2024-02-21T13:37:12;21.90;54.90
14705;DHT22;7442;50.840;3.396;2024-02-21T13:39:42;21.80;55.00
14705;DHT22;7442;50.840;3.396;2024-02-21T13:42:12;21.80;55.20
14705;DHT22;7442;50.840;3.396;2024-02-21T13:44:42;21.70;55.30
14705;DHT22;7442;50.840;3.396;2024-02-21T13:47:15;21.70;55.50
14705;DHT22;7442;50.840;3.396;2024-02-21T13:49:45;21.60;55.60
14705;DHT22;7442;50.840;3.396;2024-02-21T13:52:15;21.60;55.70
14705;DHT22;7442;50.840;3.396;2024-02-21T13:54:46;21.60;56.30
14705;DHT22;7442;50.840;3.396;2024-02-21T13:57:16;21.60;55.60
14705;DHT22;7442;50.840;3.396;2024-02-21T13:59:46;21.60;55.60
14705;DHT22;7442;50.840;3.396;2024-02-21T14:02:16;21.60;55.70
14705;DHT22;7442;50.840;3.396;2024-02-21T14:04:47;21.60;56.20
14705;DHT22;7442;50.840;3.396;2024-02-21T14:07:17;21.60;55.80
14705;DHT22;7442;50.840;3.396;2024-02-21T14:09:47;21.60;55.80
14705;DHT22;7442;50.840;3.396;2024-02-21T14:12:17;21.50;55.70
14705;DHT22;7442;50.840;3.396;2024-02-21T14:14:49;21.50;56.00
14705;DHT22;7442;50.840;3.396;2024-02-21T14:17:19;21.50;56.10
14705;DHT22;7442;50.840;3.396;2024-02-21T14:19:49;21.40;56.10
14705;DHT22;7442;50.840;3.396;2024-02-21T14:22:20;21.40;56.30
14705;DHT22;7442;50.840;3.396;2024-02-21T14:24:50;21.40;56.10
14705;DHT22;7442;50.840;3.396;2024-02-21T14:27:20;21.50;56.20
14705;DHT22;7442;50.840;3.396;2024-02-21T14:29:51;21.40;56.10
14705;DHT22;7442;50.840;3.396;2024-02-21T14:32:23;21.50;56.10
14705;DHT22;7442;50.840;3.396;2024-02-21T14:34:53;21.50;56.00
14705;DHT22;7442;50.840;3.396;2024-02-21T14:37:23;21.60;55.90
14705;DHT22;7442;50.840;3.396;2024-02-21T14:39:53;21.60;56.00
14705;DHT22;7442;50.840;3.396;2024-02-21T14:42:24;21.60;56.10
14705;DHT22;7442;50.840;3.396;2024-02-21T14:44:54;21.50;56.10
14705;DHT22;7442;50.840;3.396;2024-02-21T14:47:26;21.50;56.30
14705;DHT22;7442;50.840;3.396;2024-02-21T14:49:56;21.50;56.40
14705;DHT22;7442;50.840;3.396;2024-02-21T14:52:26;21.60;56.10
14705;DHT22;7442;50.840;3.396;2024-02-21T14:54:57;21.50;56.10
14705;DHT22;7442;50.840;3.396;2024-02-21T14:57:28;21.50;55.90
14705;DHT22;7442;50.840;3.396;2024-02-21T14:59:58;21.40;55.90
14705;DHT22;7442;50.840;3.396;2024-02-21T15:02:28;21.30;55.80
14705;DHT22;7442;50.840;3.396;2024-02-21T15:04:58;21.30;55.80
14705;DHT22;7442;50.840;3.396;2024-02-21T15:07:29;21.20;55.70
14705;DHT22;7442;50.840;3.396;2024-02-21T15:09:59;21.20;55.80
14705;DHT22;7442;50.840;3.396;2024-02-21T15:12:29;21.20;56.00
14705;DHT22;7442;50.840;3.396;2024-02-21T15:15:00;21.10;56.10
14705;DHT22;7442;50.840;3.396;2024-02-21T15:17:30;21.10;56.30
14705;DHT22;7442;50.840;3.396;2024-02-21T15:20:00;21.00;56.40
14705;DHT22;7442;50.840;3.396;2024-02-21T15:22:31;21.00;56.60
14705;DHT22;7442;50.840;3.396;2024-02-21T15:25:01;21.00;56.50
14705;DHT22;7442;50.840;3.396;2024-02-21T15:27:33;21.00;56.60
14705;DHT22;7442;50.840;3.396;2024-02-21T15:30:05;21.00;56.60
14705;DHT22;7442;50.840;3.396;2024-02-21T15:32:35;20.90;57.30
14705;DHT22;7442;50.840;3.396;2024-02-21T15:35:07;20.90;56.70
14705;DHT22;7442;50.840;3.396;2024-02-21T15:37:37;20.90;56.80
14705;DHT22;7442;50.840;3.396;2024-02-21T15:40:08;20.90;56.80
14705;DHT22;7442;50.840;3.396;2024-02-21T15:42:38;20.90;56.60
14705;DHT22;7442;50.840;3.396;2024-02-21T15:45:09;20.90;56.50
14705;DHT22;7442;50.840;3.396;2024-02-21T15:47:39;20.90;56.40
14705;DHT22;7442;50.840;3.396;2024-02-21T15:50:10;20.90;56.60
14705;DHT22;7442;50.840;3.396;2024-02-21T15:52:40;20.90;56.60
14705;DHT22;7442;50.840;3.396;2024-02-21T15:55:10;20.80;56.80
14705;DHT22;7442;50.840;3.396;2024-02-21T15:57:41;20.80;57.50
14705;DHT22;7442;50.840;3.396;2024-02-21T16:00:11;20.80;56.90
14705;DHT22;7442;50.840;3.396;2024-02-21T16:02:42;20.80;57.00
14705;DHT22;7442;50.840;3.396;2024-02-21T16:05:12;20.80;57.10
14705;DHT22;7442;50.840;3.396;2024-02-21T16:07:42;20.70;57.00
14705;DHT22;7442;50.840;3.396;2024-02-21T16:10:12;20.70;57.10
14705;DHT22;7442;50.840;3.396;2024-02-21T16:12:42;20.70;56.90